Terminal Aerodrome Forecast
Issued by NWS Upton, NY

Home | Current Version | Previous Version | Text Only | Print | Product List | Glossary On
Versions: 1 2 3 4 5 6 7 8 9 10 11 12 13 14 15 16 17 18 19 20 21 22 23 24 25 26 27 28 29 30
492
FTUS41 KOKX 222346
TAFJFK
TAF
KJFK 222346Z 2300/2406 33022G30KT P6SM SKC
     FM230200 33019G27KT P6SM SKC
     FM230600 33014G22KT P6SM SKC
     FM230800 33013KT P6SM FEW250
     FM231900 29011KT P6SM FEW250
     FM232300 27008KT P6SM FEW250
     FM240300 VRB03KT P6SM FEW250=

USA.gov is the U.S. government's official web portal to all federal, state and local government web resources and services.